Pagrindinis puslapis
METAR-TAF:

METAR-TAF

Oro uostai :

Qaisumah, Saudo Arabija

platuma: 28-19N, ilguma: 046-07E, Aukštis: 358 m

Dabartinis oras

Ataskaita buvo paskelbta 1 valandą ir 11 minutes, ne 18:00 UTC
Vėjas 8 kt iš Rytų/Šiaurės Rytų
Temperatūra 26°C
Drėgmė 39%
Slėgis 1013 hPa
Matomumas 10 km arba daugiau
nėra debesų žemiau 1500 m ir nėra kamuolinių lietaus debesų

METAR: OEPA 121800Z 06008KT CAVOK 26/11 Q1013 NOSIG

Laikas: 22:11 (19:11 UTC)

Prognozė

Ataskaita buvo paskelbta 8 valandos ir 11 minutes, ne 11:00 UTC
Prognozė galioja nuo 12 metu 12 UTC su 13 metu 18 UTC
Vėjas 15 kt iš Rytų
Matomumas: 7000 m
Mažai debesys ne aukštis 3500 ft
Tikimybė 40% :
Laikinai
nuo 12 metu 19 UTC su 13 metu 06 UTC
Mažai debesys ne aukštis 3000 ft, Liūtiniai kamuoliniai debesys.
Išsisklaidę debesys ne aukštis 3500 ft
perkūnija, lietus
Tapsmas
nuo 13 metu 06 UTC su 13 metu 08 UTC
Vėjas 12 kt iš Pietų/Pietryčių

TAF: OEPA 121100Z 1212/1318 08015KT 7000 FEW035 PROB40 TEMPO 1219/1306 TSRA FEW030CB SCT035 BECMG 1306/1308 16012KT

Orai ataskaitas ir orų prognozės (METAR, TAF).

turimą stotys yra geltonos ir raudonos taškus žemėlapyje.

Perkelti pele per norėdami pamatyti stoties vardą.

Tada spustelėkite, norėdami matyti oro stebėjimo ir prognozės.

Norėdami pakeisti žemėlapį: spustelėkite ant žalios mygtukų su juodo kryžiaus žemyn,; žalią mygtuką su brūkšneliu, jei norite nutolinti; arba žalių rodyklių gretimoms žemėlapius.


METAR-TAF: